sensor_id;sensor_type;location;lat;lon;timestamp;pressure;altitude;pressure_sealevel;temperature;humidity
28665;BME280;15850;47.524;7.814;2023-11-19T00:00:32;98001.63;;;6.81;100.00
28665;BME280;15850;47.524;7.814;2023-11-19T00:02:58;97993.59;;;6.90;100.00
28665;BME280;15850;47.524;7.814;2023-11-19T00:05:23;97997.88;;;6.91;100.00
28665;BME280;15850;47.524;7.814;2023-11-19T00:07:49;97949.59;;;6.62;100.00
28665;BME280;15850;47.524;7.814;2023-11-19T00:10:16;97996.81;;;6.92;100.00
28665;BME280;15850;47.524;7.814;2023-11-19T00:12:44;97998.06;;;6.95;100.00
28665;BME280;15850;47.524;7.814;2023-11-19T00:15:10;97956.06;;;6.52;100.00
28665;BME280;15850;47.524;7.814;2023-11-19T00:17:35;97997.03;;;6.68;100.00
28665;BME280;15850;47.524;7.814;2023-11-19T00:20:01;98004.06;;;6.69;100.00
28665;BME280;15850;47.524;7.814;2023-11-19T00:22:26;97992.47;;;6.55;100.00
28665;BME280;15850;47.524;7.814;2023-11-19T00:24:52;97987.88;;;6.42;100.00
28665;BME280;15850;47.524;7.814;2023-11-19T00:27:19;97969.25;;;6.54;100.00
28665;BME280;15850;47.524;7.814;2023-11-19T00:29:44;97967.66;;;6.53;100.00
28665;BME280;15850;47.524;7.814;2023-11-19T00:32:10;97957.41;;;6.64;100.00
28665;BME280;15850;47.524;7.814;2023-11-19T00:34:35;97959.97;;;6.82;100.00
28665;BME280;15850;47.524;7.814;2023-11-19T00:37:01;97933.19;;;6.58;100.00
28665;BME280;15850;47.524;7.814;2023-11-19T00:39:26;97539.56;;;4.24;100.00
28665;BME280;15850;47.524;7.814;2023-11-19T00:41:52;97934.81;;;6.59;100.00
28665;BME280;15850;47.524;7.814;2023-11-19T00:44:19;97890.94;;;6.26;100.00
28665;BME280;15850;47.524;7.814;2023-11-19T00:46:44;97960.81;;;6.69;100.00
28665;BME280;15850;47.524;7.814;2023-11-19T00:49:10;97950.13;;;6.87;100.00
28665;BME280;15850;47.524;7.814;2023-11-19T00:51:35;97963.53;;;6.92;100.00
28665;BME280;15850;47.524;7.814;2023-11-19T00:54:01;97948.53;;;6.86;100.00
28665;BME280;15850;47.524;7.814;2023-11-19T00:56:27;97938.75;;;6.76;100.00
28665;BME280;15850;47.524;7.814;2023-11-19T00:58:54;97823.22;;;6.09;100.00
28665;BME280;15850;47.524;7.814;2023-11-19T01:01:21;97956.16;;;6.83;100.00
28665;BME280;15850;47.524;7.814;2023-11-19T01:03:46;97742.25;;;5.31;100.00
28665;BME280;15850;47.524;7.814;2023-11-19T01:06:12;97608.78;;;4.51;100.00
28665;BME280;15850;47.524;7.814;2023-11-19T01:08:38;97952.44;;;6.57;100.00
28665;BME280;15850;47.524;7.814;2023-11-19T01:11:04;97969.34;;;6.49;100.00
28665;BME280;15850;47.524;7.814;2023-11-19T01:13:29;97949.44;;;6.45;100.00
28665;BME280;15850;47.524;7.814;2023-11-19T01:15:55;97937.31;;;6.56;100.00
28665;BME280;15850;47.524;7.814;2023-11-19T01:18:21;97931.31;;;6.59;100.00
28665;BME280;15850;47.524;7.814;2023-11-19T01:20:47;97920.88;;;6.66;100.00
28665;BME280;15850;47.524;7.814;2023-11-19T01:23:12;97927.38;;;6.88;100.00
28665;BME280;15850;47.524;7.814;2023-11-19T01:25:38;97906.13;;;6.72;100.00
28665;BME280;15850;47.524;7.814;2023-11-19T01:28:05;97891.72;;;6.63;100.00
28665;BME280;15850;47.524;7.814;2023-11-19T01:30:30;97645.66;;;5.19;100.00
28665;BME280;15850;47.524;7.814;2023-11-19T01:32:56;97880.78;;;6.91;100.00
28665;BME280;15850;47.524;7.814;2023-11-19T01:35:23;97747.97;;;5.94;100.00
28665;BME280;15850;47.524;7.814;2023-11-19T01:37:48;97895.13;;;6.91;100.00
28665;BME280;15850;47.524;7.814;2023-11-19T01:40:14;97880.00;;;6.90;100.00
28665;BME280;15850;47.524;7.814;2023-11-19T01:42:40;97881.75;;;6.95;100.00
28665;BME280;15850;47.524;7.814;2023-11-19T01:45:07;97886.94;;;7.05;100.00
28665;BME280;15850;47.524;7.814;2023-11-19T01:47:33;97889.84;;;7.09;100.00
28665;BME280;15850;47.524;7.814;2023-11-19T01:50:01;97845.44;;;6.87;100.00
28665;BME280;15850;47.524;7.814;2023-11-19T01:52:29;97804.53;;;6.57;100.00
28665;BME280;15850;47.524;7.814;2023-11-19T01:54:54;97871.44;;;6.97;100.00
28665;BME280;15850;47.524;7.814;2023-11-19T01:57:21;97885.47;;;6.99;100.00
28665;BME280;15850;47.524;7.814;2023-11-19T01:59:48;97889.00;;;7.08;100.00
28665;BME280;15850;47.524;7.814;2023-11-19T02:02:15;97812.47;;;6.54;100.00
28665;BME280;15850;47.524;7.814;2023-11-19T02:04:41;97896.03;;;7.09;100.00
28665;BME280;15850;47.524;7.814;2023-11-19T02:07:07;97887.59;;;7.11;100.00
28665;BME280;15850;47.524;7.814;2023-11-19T02:09:35;97875.72;;;7.20;100.00
28665;BME280;15850;47.524;7.814;2023-11-19T02:12:01;97879.19;;;7.12;100.00
28665;BME280;15850;47.524;7.814;2023-11-19T02:14:26;97628.63;;;5.47;100.00
28665;BME280;15850;47.524;7.814;2023-11-19T02:16:52;97899.22;;;7.11;100.00
28665;BME280;15850;47.524;7.814;2023-11-19T02:19:19;97743.81;;;6.10;100.00
28665;BME280;15850;47.524;7.814;2023-11-19T02:21:44;97763.72;;;6.37;100.00
28665;BME280;15850;47.524;7.814;2023-11-19T02:24:11;97909.78;;;7.21;100.00
28665;BME280;15850;47.524;7.814;2023-11-19T02:26:46;97858.72;;;6.97;100.00
28665;BME280;15850;47.524;7.814;2023-11-19T02:29:15;97900.06;;;7.20;100.00
28665;BME280;15850;47.524;7.814;2023-11-19T02:31:40;97913.75;;;7.15;100.00
28665;BME280;15850;47.524;7.814;2023-11-19T02:34:06;97906.72;;;7.14;100.00
28665;BME280;15850;47.524;7.814;2023-11-19T02:36:32;97900.94;;;7.07;100.00
28665;BME280;15850;47.524;7.814;2023-11-19T02:38:57;97914.47;;;7.07;100.00
28665;BME280;15850;47.524;7.814;2023-11-19T02:41:23;97872.84;;;6.72;100.00
28665;BME280;15850;47.524;7.814;2023-11-19T02:43:49;97914.84;;;6.92;100.00
28665;BME280;15850;47.524;7.814;2023-11-19T02:46:15;97836.16;;;6.34;100.00
28665;BME280;15850;47.524;7.814;2023-11-19T02:48:41;97904.09;;;7.00;100.00
28665;BME280;15850;47.524;7.814;2023-11-19T02:51:07;97778.00;;;6.15;100.00
28665;BME280;15850;47.524;7.814;2023-11-19T02:53:32;97882.44;;;7.00;100.00
28665;BME280;15850;47.524;7.814;2023-11-19T02:55:58;97807.00;;;6.45;100.00
28665;BME280;15850;47.524;7.814;2023-11-19T02:58:23;97882.81;;;7.07;100.00
28665;BME280;15850;47.524;7.814;2023-11-19T03:00:49;97876.06;;;6.96;100.00
28665;BME280;15850;47.524;7.814;2023-11-19T03:03:16;97878.38;;;7.12;100.00
28665;BME280;15850;47.524;7.814;2023-11-19T03:05:42;97891.88;;;7.03;100.00
28665;BME280;15850;47.524;7.814;2023-11-19T03:08:07;97885.56;;;7.16;100.00
28665;BME280;15850;47.524;7.814;2023-11-19T03:10:33;97888.63;;;7.23;100.00
28665;BME280;15850;47.524;7.814;2023-11-19T03:12:58;97743.69;;;6.38;100.00
28665;BME280;15850;47.524;7.814;2023-11-19T03:15:24;97836.09;;;6.93;100.00
28665;BME280;15850;47.524;7.814;2023-11-19T03:17:49;97874.59;;;7.21;100.00
28665;BME280;15850;47.524;7.814;2023-11-19T03:20:17;97878.69;;;7.10;100.00
28665;BME280;15850;47.524;7.814;2023-11-19T03:22:43;97867.38;;;7.08;100.00
28665;BME280;15850;47.524;7.814;2023-11-19T03:25:09;97855.91;;;7.02;100.00
28665;BME280;15850;47.524;7.814;2023-11-19T03:27:35;97728.69;;;6.31;100.00
28665;BME280;15850;47.524;7.814;2023-11-19T03:30:01;97705.50;;;6.08;100.00
28665;BME280;15850;47.524;7.814;2023-11-19T03:32:26;97650.88;;;5.75;100.00
28665;BME280;15850;47.524;7.814;2023-11-19T03:34:52;97871.28;;;7.24;100.00
28665;BME280;15850;47.524;7.814;2023-11-19T03:37:19;97893.94;;;7.28;100.00
28665;BME280;15850;47.524;7.814;2023-11-19T03:39:44;97891.59;;;7.36;100.00
28665;BME280;15850;47.524;7.814;2023-11-19T03:42:10;97888.56;;;7.15;100.00
28665;BME280;15850;47.524;7.814;2023-11-19T03:44:35;97891.09;;;7.11;100.00
28665;BME280;15850;47.524;7.814;2023-11-19T03:47:01;97883.13;;;7.06;100.00
28665;BME280;15850;47.524;7.814;2023-11-19T03:49:26;97894.00;;;7.15;100.00
28665;BME280;15850;47.524;7.814;2023-11-19T03:51:52;97903.28;;;7.22;100.00
28665;BME280;15850;47.524;7.814;2023-11-19T03:54:19;97816.75;;;6.77;100.00
28665;BME280;15850;47.524;7.814;2023-11-19T03:56:44;97898.41;;;7.33;100.00
28665;BME280;15850;47.524;7.814;2023-11-19T03:59:10;97833.63;;;7.05;100.00
28665;BME280;15850;47.524;7.814;2023-11-19T04:01:35;97908.34;;;7.46;100.00
28665;BME280;15850;47.524;7.814;2023-11-19T04:04:01;97909.75;;;7.44;100.00
28665;BME280;15850;47.524;7.814;2023-11-19T04:06:26;97913.09;;;7.41;100.00
28665;BME280;15850;47.524;7.814;2023-11-19T04:08:52;97913.59;;;7.43;100.00
28665;BME280;15850;47.524;7.814;2023-11-19T04:11:19;97900.78;;;7.35;100.00
28665;BME280;15850;47.524;7.814;2023-11-19T04:13:44;97911.34;;;7.45;100.00
28665;BME280;15850;47.524;7.814;2023-11-19T04:16:10;97913.31;;;7.53;100.00
28665;BME280;15850;47.524;7.814;2023-11-19T04:18:35;97909.84;;;7.61;100.00
28665;BME280;15850;47.524;7.814;2023-11-19T04:21:01;97911.91;;;7.56;100.00
28665;BME280;15850;47.524;7.814;2023-11-19T04:23:26;97923.53;;;7.56;100.00
28665;BME280;15850;47.524;7.814;2023-11-19T04:25:52;97832.63;;;7.01;100.00
28665;BME280;15850;47.524;7.814;2023-11-19T04:28:19;97925.25;;;7.52;100.00
28665;BME280;15850;47.524;7.814;2023-11-19T04:30:44;97886.25;;;7.22;100.00
28665;BME280;15850;47.524;7.814;2023-11-19T04:33:10;97930.50;;;7.48;100.00
28665;BME280;15850;47.524;7.814;2023-11-19T04:35:36;97682.34;;;5.79;100.00
28665;BME280;15850;47.524;7.814;2023-11-19T04:38:01;97901.22;;;7.28;100.00
28665;BME280;15850;47.524;7.814;2023-11-19T04:40:27;97922.69;;;7.47;100.00
28665;BME280;15850;47.524;7.814;2023-11-19T04:42:52;97911.06;;;7.46;100.00
28665;BME280;15850;47.524;7.814;2023-11-19T04:45:19;97730.78;;;6.34;100.00
28665;BME280;15850;47.524;7.814;2023-11-19T04:47:44;97935.31;;;7.60;100.00
28665;BME280;15850;47.524;7.814;2023-11-19T04:50:10;97890.06;;;7.52;100.00
28665;BME280;15850;47.524;7.814;2023-11-19T04:52:37;97817.94;;;7.16;100.00
28665;BME280;15850;47.524;7.814;2023-11-19T04:55:03;97696.94;;;6.37;100.00
28665;BME280;15850;47.524;7.814;2023-11-19T04:57:28;97619.22;;;5.89;100.00
28665;BME280;15850;47.524;7.814;2023-11-19T04:59:54;97910.22;;;7.77;100.00
28665;BME280;15850;47.524;7.814;2023-11-19T05:02:21;97908.69;;;7.85;100.00
28665;BME280;15850;47.524;7.814;2023-11-19T05:04:46;97923.25;;;7.66;100.00
28665;BME280;15850;47.524;7.814;2023-11-19T05:07:12;97801.69;;;6.85;100.00
28665;BME280;15850;47.524;7.814;2023-11-19T05:09:37;97673.69;;;6.05;100.00
28665;BME280;15850;47.524;7.814;2023-11-19T05:12:03;97669.88;;;6.06;100.00
28665;BME280;15850;47.524;7.814;2023-11-19T05:14:28;97923.09;;;7.71;100.00
28665;BME280;15850;47.524;7.814;2023-11-19T05:16:54;97910.56;;;7.75;100.00
28665;BME280;15850;47.524;7.814;2023-11-19T05:19:21;97929.28;;;7.63;100.00
28665;BME280;15850;47.524;7.814;2023-11-19T05:21:46;97717.59;;;6.33;100.00
28665;BME280;15850;47.524;7.814;2023-11-19T05:24:12;97933.53;;;7.87;100.00
28665;BME280;15850;47.524;7.814;2023-11-19T05:26:38;97798.84;;;6.90;100.00
28665;BME280;15850;47.524;7.814;2023-11-19T05:29:03;97938.47;;;7.85;100.00
28665;BME280;15850;47.524;7.814;2023-11-19T05:31:29;97925.97;;;7.66;100.00
28665;BME280;15850;47.524;7.814;2023-11-19T05:33:54;97923.03;;;7.85;100.00
28665;BME280;15850;47.524;7.814;2023-11-19T05:36:21;97860.06;;;7.40;100.00
28665;BME280;15850;47.524;7.814;2023-11-19T05:38:47;97886.09;;;7.58;100.00
28665;BME280;15850;47.524;7.814;2023-11-19T05:41:12;97919.94;;;7.78;100.00
28665;BME280;15850;47.524;7.814;2023-11-19T05:43:38;97678.81;;;6.38;100.00
28665;BME280;15850;47.524;7.814;2023-11-19T05:46:04;97893.19;;;7.76;100.00
28665;BME280;15850;47.524;7.814;2023-11-19T05:48:29;97920.78;;;7.87;100.00
28665;BME280;15850;47.524;7.814;2023-11-19T05:50:55;97921.78;;;8.00;100.00
28665;BME280;15850;47.524;7.814;2023-11-19T05:53:22;97938.03;;;8.00;100.00
28665;BME280;15850;47.524;7.814;2023-11-19T05:55:47;97888.88;;;7.75;100.00
28665;BME280;15850;47.524;7.814;2023-11-19T05:58:13;97904.06;;;7.94;100.00
28665;BME280;15850;47.524;7.814;2023-11-19T06:00:38;97853.91;;;7.57;100.00
28665;BME280;15850;47.524;7.814;2023-11-19T06:03:04;97890.31;;;7.73;100.00
28665;BME280;15850;47.524;7.814;2023-11-19T06:05:29;97840.38;;;7.17;100.00
28665;BME280;15850;47.524;7.814;2023-11-19T06:07:55;97593.78;;;5.81;100.00
28665;BME280;15850;47.524;7.814;2023-11-19T06:10:22;97289.75;;;3.71;100.00
28665;BME280;15850;47.524;7.814;2023-11-19T06:12:47;97490.50;;;5.22;100.00
28665;BME280;15850;47.524;7.814;2023-11-19T06:15:13;97925.97;;;8.15;100.00
28665;BME280;15850;47.524;7.814;2023-11-19T06:17:38;97930.75;;;8.09;100.00
28665;BME280;15850;47.524;7.814;2023-11-19T06:20:05;97926.28;;;8.13;100.00
28665;BME280;15850;47.524;7.814;2023-11-19T06:22:31;97861.00;;;7.75;100.00
28665;BME280;15850;47.524;7.814;2023-11-19T06:24:56;97695.22;;;6.72;100.00
28665;BME280;15850;47.524;7.814;2023-11-19T06:27:23;97919.56;;;8.11;100.00
28665;BME280;15850;47.524;7.814;2023-11-19T06:29:49;97799.47;;;7.18;100.00
28665;BME280;15850;47.524;7.814;2023-11-19T06:32:14;97543.00;;;5.61;100.00
28665;BME280;15850;47.524;7.814;2023-11-19T06:34:41;97916.22;;;8.14;100.00
28665;BME280;15850;47.524;7.814;2023-11-19T06:37:06;97647.59;;;6.23;100.00
28665;BME280;15850;47.524;7.814;2023-11-19T06:39:32;97810.66;;;7.25;100.00
28665;BME280;15850;47.524;7.814;2023-11-19T06:41:58;97939.88;;;8.22;100.00
28665;BME280;15850;47.524;7.814;2023-11-19T06:44:24;97516.50;;;5.40;100.00
28665;BME280;15850;47.524;7.814;2023-11-19T06:46:50;97821.88;;;7.50;100.00
28665;BME280;15850;47.524;7.814;2023-11-19T06:49:15;97933.16;;;8.19;100.00
28665;BME280;15850;47.524;7.814;2023-11-19T06:51:41;97844.56;;;7.63;100.00
28665;BME280;15850;47.524;7.814;2023-11-19T06:54:07;97216.56;;;3.46;100.00
28665;BME280;15850;47.524;7.814;2023-11-19T06:56:33;97522.50;;;5.60;100.00
28665;BME280;15850;47.524;7.814;2023-11-19T06:58:58;97682.28;;;6.61;100.00
28665;BME280;15850;47.524;7.814;2023-11-19T07:01:25;97518.56;;;5.66;100.00
28665;BME280;15850;47.524;7.814;2023-11-19T07:03:50;97916.91;;;8.19;100.00
28665;BME280;15850;47.524;7.814;2023-11-19T07:06:16;97931.47;;;8.41;100.00
28665;BME280;15850;47.524;7.814;2023-11-19T07:08:42;97862.97;;;8.00;100.00
28665;BME280;15850;47.524;7.814;2023-11-19T07:11:08;97913.28;;;8.50;100.00
28665;BME280;15850;47.524;7.814;2023-11-19T07:13:33;97870.19;;;8.22;100.00
28665;BME280;15850;47.524;7.814;2023-11-19T07:15:59;97929.41;;;8.64;100.00
28665;BME280;15850;47.524;7.814;2023-11-19T07:18:26;97774.28;;;7.58;100.00
28665;BME280;15850;47.524;7.814;2023-11-19T07:20:52;97866.03;;;8.16;100.00
28665;BME280;15850;47.524;7.814;2023-11-19T07:23:17;97812.41;;;7.79;100.00
28665;BME280;15850;47.524;7.814;2023-11-19T07:25:43;97936.75;;;8.63;100.00
28665;BME280;15850;47.524;7.814;2023-11-19T07:28:09;97939.16;;;8.74;100.00
28665;BME280;15850;47.524;7.814;2023-11-19T07:30:34;97932.63;;;8.75;100.00
28665;BME280;15850;47.524;7.814;2023-11-19T07:33:00;97937.09;;;8.70;100.00
28665;BME280;15850;47.524;7.814;2023-11-19T07:35:27;97820.09;;;8.03;100.00
28665;BME280;15850;47.524;7.814;2023-11-19T07:37:52;97369.59;;;5.15;100.00
28665;BME280;15850;47.524;7.814;2023-11-19T07:40:18;97895.13;;;8.42;100.00
28665;BME280;15850;47.524;7.814;2023-11-19T07:42:43;97852.50;;;8.34;100.00
28665;BME280;15850;47.524;7.814;2023-11-19T07:45:09;97803.53;;;7.95;100.00
28665;BME280;15850;47.524;7.814;2023-11-19T07:47:35;97822.34;;;8.27;100.00
28665;BME280;15850;47.524;7.814;2023-11-19T07:50:01;97805.75;;;8.11;100.00
28665;BME280;15850;47.524;7.814;2023-11-19T07:52:28;97172.72;;;4.05;100.00
28665;BME280;15850;47.524;7.814;2023-11-19T07:54:53;97357.91;;;4.98;100.00
28665;BME280;15850;47.524;7.814;2023-11-19T07:57:19;97608.47;;;7.00;100.00
28665;BME280;15850;47.524;7.814;2023-11-19T07:59:45;97771.31;;;7.85;100.00
28665;BME280;15850;47.524;7.814;2023-11-19T08:02:10;97975.72;;;9.20;100.00
28665;BME280;15850;47.524;7.814;2023-11-19T08:04:36;97618.19;;;7.10;100.00
28665;BME280;15850;47.524;7.814;2023-11-19T08:07:01;97926.38;;;9.00;100.00
28665;BME280;15850;47.524;7.814;2023-11-19T08:09:28;97900.53;;;8.77;100.00
28665;BME280;15850;47.524;7.814;2023-11-19T08:11:54;97961.16;;;9.33;100.00
28665;BME280;15850;47.524;7.814;2023-11-19T08:14:19;97525.28;;;6.40;100.00
28665;BME280;15850;47.524;7.814;2023-11-19T08:16:45;97839.94;;;8.55;100.00
28665;BME280;15850;47.524;7.814;2023-11-19T08:19:10;97961.94;;;9.51;100.00
28665;BME280;15850;47.524;7.814;2023-11-19T08:21:36;97560.25;;;7.11;100.00
28665;BME280;15850;47.524;7.814;2023-11-19T08:24:01;97961.69;;;9.82;100.00
28665;BME280;15850;47.524;7.814;2023-11-19T08:26:28;97953.50;;;9.91;100.00
28665;BME280;15850;47.524;7.814;2023-11-19T08:28:54;97955.66;;;10.06;100.00
28665;BME280;15850;47.524;7.814;2023-11-19T08:31:19;97948.69;;;9.96;100.00
28665;BME280;15850;47.524;7.814;2023-11-19T08:33:45;97574.75;;;7.41;100.00
28665;BME280;15850;47.524;7.814;2023-11-19T08:36:15;97302.94;;;5.56;100.00
28665;BME280;15850;47.524;7.814;2023-11-19T08:38:41;97994.88;;;9.96;100.00
28665;BME280;15850;47.524;7.814;2023-11-19T08:41:06;97953.66;;;9.94;100.00
28665;BME280;15850;47.524;7.814;2023-11-19T08:43:33;97890.75;;;9.75;100.00
28665;BME280;15850;47.524;7.814;2023-11-19T08:45:59;97912.84;;;10.03;100.00
28665;BME280;15850;47.524;7.814;2023-11-19T08:48:24;97888.72;;;10.01;100.00
28665;BME280;15850;47.524;7.814;2023-11-19T08:50:50;97979.13;;;10.57;100.00
28665;BME280;15850;47.524;7.814;2023-11-19T08:53:15;97857.13;;;9.88;100.00
28665;BME280;15850;47.524;7.814;2023-11-19T08:55:41;97726.25;;;9.27;100.00
28665;BME280;15850;47.524;7.814;2023-11-19T08:58:06;97968.97;;;10.88;100.00
28665;BME280;15850;47.524;7.814;2023-11-19T09:00:33;97862.22;;;10.19;100.00
28665;BME280;15850;47.524;7.814;2023-11-19T09:02:59;97973.25;;;10.97;100.00
28665;BME280;15850;47.524;7.814;2023-11-19T09:05:24;97888.50;;;10.36;100.00
28665;BME280;15850;47.524;7.814;2023-11-19T09:07:50;97852.66;;;10.13;100.00
28665;BME280;15850;47.524;7.814;2023-11-19T09:10:16;97846.84;;;10.23;100.00
28665;BME280;15850;47.524;7.814;2023-11-19T09:12:41;97976.94;;;11.14;100.00
28665;BME280;15850;47.524;7.814;2023-11-19T09:15:08;97760.44;;;9.87;100.00
28665;BME280;15850;47.524;7.814;2023-11-19T09:17:35;97288.72;;;6.86;100.00
28665;BME280;15850;47.524;7.814;2023-11-19T09:20:00;97955.84;;;11.11;100.00
28665;BME280;15850;47.524;7.814;2023-11-19T09:22:26;97242.75;;;6.68;100.00
28665;BME280;15850;47.524;7.814;2023-11-19T09:24:51;97968.44;;;11.36;100.00
28665;BME280;15850;47.524;7.814;2023-11-19T09:27:17;97503.41;;;8.48;100.00
28665;BME280;15850;47.524;7.814;2023-11-19T09:29:43;97138.81;;;6.10;100.00
28665;BME280;15850;47.524;7.814;2023-11-19T09:32:08;97270.38;;;7.00;100.00
28665;BME280;15850;47.524;7.814;2023-11-19T09:34:35;97253.00;;;7.01;100.00
28665;BME280;15850;47.524;7.814;2023-11-19T09:37:01;97970.59;;;11.76;100.00
28665;BME280;15850;47.524;7.814;2023-11-19T09:39:27;97532.38;;;9.07;100.00
28665;BME280;15850;47.524;7.814;2023-11-19T09:41:53;97346.16;;;7.97;100.00
28665;BME280;15850;47.524;7.814;2023-11-19T09:44:18;97798.38;;;11.25;100.00
28665;BME280;15850;47.524;7.814;2023-11-19T09:46:44;97971.22;;;12.43;100.00
28665;BME280;15850;47.524;7.814;2023-11-19T09:49:10;97966.41;;;12.64;100.00
28665;BME280;15850;47.524;7.814;2023-11-19T09:51:38;97742.53;;;10.94;100.00
28665;BME280;15850;47.524;7.814;2023-11-19T09:54:03;97853.47;;;11.67;100.00
28665;BME280;15850;47.524;7.814;2023-11-19T09:56:29;97987.81;;;12.13;100.00
28665;BME280;15850;47.524;7.814;2023-11-19T09:58:55;97920.16;;;11.70;100.00
28665;BME280;15850;47.524;7.814;2023-11-19T10:01:21;97885.44;;;11.34;100.00
28665;BME280;15850;47.524;7.814;2023-11-19T10:03:47;97968.06;;;11.71;100.00
28665;BME280;15850;47.524;7.814;2023-11-19T10:06:14;97975.28;;;11.88;100.00
28665;BME280;15850;47.524;7.814;2023-11-19T10:08:42;97936.81;;;11.56;100.00
28665;BME280;15850;47.524;7.814;2023-11-19T10:11:07;97659.75;;;9.83;100.00
28665;BME280;15850;47.524;7.814;2023-11-19T10:13:35;97984.28;;;12.01;100.00
28665;BME280;15850;47.524;7.814;2023-11-19T10:16:04;97899.13;;;11.70;100.00
28665;BME280;15850;47.524;7.814;2023-11-19T10:18:29;97889.31;;;12.03;100.00
28665;BME280;15850;47.524;7.814;2023-11-19T10:20:55;97887.59;;;12.22;100.00
28665;BME280;15850;47.524;7.814;2023-11-19T10:23:21;97969.38;;;12.72;100.00
28665;BME280;15850;47.524;7.814;2023-11-19T10:25:48;97923.31;;;12.70;100.00
28665;BME280;15850;47.524;7.814;2023-11-19T10:28:15;97980.22;;;13.08;100.00
28665;BME280;15850;47.524;7.814;2023-11-19T10:30:41;97577.81;;;10.39;100.00
28665;BME280;15850;47.524;7.814;2023-11-19T10:33:08;97993.53;;;12.98;100.00
28665;BME280;15850;47.524;7.814;2023-11-19T10:35:35;97965.34;;;13.34;100.00
28665;BME280;15850;47.524;7.814;2023-11-19T10:38:01;97978.41;;;13.40;100.00
28665;BME280;15850;47.524;7.814;2023-11-19T10:40:38;97308.19;;;9.14;100.00
28665;BME280;15850;47.524;7.814;2023-11-19T10:43:07;97277.53;;;9.02;100.00
28665;BME280;15850;47.524;7.814;2023-11-19T10:45:33;97219.03;;;8.80;100.00
28665;BME280;15850;47.524;7.814;2023-11-19T10:47:59;97571.72;;;10.91;100.00
28665;BME280;15850;47.524;7.814;2023-11-19T10:50:25;97722.41;;;11.97;100.00
28665;BME280;15850;47.524;7.814;2023-11-19T10:52:52;97506.19;;;10.84;100.00
28665;BME280;15850;47.524;7.814;2023-11-19T10:55:26;97757.63;;;12.42;100.00
28665;BME280;15850;47.524;7.814;2023-11-19T10:57:52;97451.88;;;11.16;100.00
28665;BME280;15850;47.524;7.814;2023-11-19T11:00:24;97209.75;;;9.67;100.00
28665;BME280;15850;47.524;7.814;2023-11-19T11:03:24;97201.28;;;9.68;100.00
28665;BME280;15850;47.524;7.814;2023-11-19T11:05:56;97564.41;;;11.88;100.00
28665;BME280;15850;47.524;7.814;2023-11-19T11:08:22;97931.03;;;14.44;100.00
28665;BME280;15850;47.524;7.814;2023-11-19T11:10:52;97654.25;;;12.41;100.00
28665;BME280;15850;47.524;7.814;2023-11-19T11:13:19;97125.09;;;8.51;100.00
28665;BME280;15850;47.524;7.814;2023-11-19T11:15:46;97713.66;;;12.32;100.00
28665;BME280;15850;47.524;7.814;2023-11-19T11:18:13;97608.47;;;12.18;100.00
28665;BME280;15850;47.524;7.814;2023-11-19T11:20:40;97602.34;;;11.93;100.00
28665;BME280;15850;47.524;7.814;2023-11-19T11:23:24;97681.22;;;11.86;100.00
28665;BME280;15850;47.524;7.814;2023-11-19T11:26:03;97959.88;;;13.62;100.00
28665;BME280;15850;47.524;7.814;2023-11-19T11:28:39;97921.34;;;13.99;100.00
28665;BME280;15850;47.524;7.814;2023-11-19T11:31:19;97916.19;;;14.29;100.00
28665;BME280;15850;47.524;7.814;2023-11-19T11:34:02;97782.56;;;13.01;100.00
28665;BME280;15850;47.524;7.814;2023-11-19T11:36:31;97184.00;;;9.36;100.00
28665;BME280;15850;47.524;7.814;2023-11-19T11:38:59;97933.25;;;14.06;100.00
28665;BME280;15850;47.524;7.814;2023-11-19T11:41:28;97528.09;;;11.56;100.00
28665;BME280;15850;47.524;7.814;2023-11-19T11:43:54;97136.91;;;8.91;100.00
28665;BME280;15850;47.524;7.814;2023-11-19T11:46:55;97908.47;;;13.68;100.00
28665;BME280;15850;47.524;7.814;2023-11-19T11:49:28;97883.31;;;13.46;100.00
28665;BME280;15850;47.524;7.814;2023-11-19T11:52:01;97900.69;;;13.70;100.00
28665;BME280;15850;47.524;7.814;2023-11-19T11:54:28;97840.09;;;13.36;100.00
28665;BME280;15850;47.524;7.814;2023-11-19T11:57:05;97884.75;;;13.88;100.00
28665;BME280;15850;47.524;7.814;2023-11-19T11:59:36;97884.22;;;13.98;100.00
28665;BME280;15850;47.524;7.814;2023-11-19T12:02:03;97881.69;;;14.24;100.00
28665;BME280;15850;47.524;7.814;2023-11-19T12:04:29;97872.72;;;13.76;100.00
28665;BME280;15850;47.524;7.814;2023-11-19T12:07:03;97871.41;;;14.02;100.00
28665;BME280;15850;47.524;7.814;2023-11-19T12:09:29;97858.72;;;13.78;100.00
28665;BME280;15850;47.524;7.814;2023-11-19T12:12:07;97872.19;;;13.86;100.00
28665;BME280;15850;47.524;7.814;2023-11-19T12:15:00;97879.06;;;13.80;100.00
28665;BME280;15850;47.524;7.814;2023-11-19T12:17:54;97871.56;;;13.77;100.00
28665;BME280;15850;47.524;7.814;2023-11-19T12:20:21;97835.97;;;13.58;100.00
28665;BME280;15850;47.524;7.814;2023-11-19T12:22:48;97879.34;;;13.91;100.00
28665;BME280;15850;47.524;7.814;2023-11-19T12:25:13;97831.03;;;13.32;100.00
28665;BME280;15850;47.524;7.814;2023-11-19T12:27:40;97860.75;;;13.65;100.00
28665;BME280;15850;47.524;7.814;2023-11-19T12:30:07;97882.00;;;13.72;100.00
28665;BME280;15850;47.524;7.814;2023-11-19T12:32:39;97770.94;;;13.04;100.00
28665;BME280;15850;47.524;7.814;2023-11-19T12:35:07;97684.75;;;12.59;100.00
28665;BME280;15850;47.524;7.814;2023-11-19T12:37:33;97877.78;;;13.74;100.00
28665;BME280;15850;47.524;7.814;2023-11-19T12:39:59;97869.47;;;13.71;100.00
28665;BME280;15850;47.524;7.814;2023-11-19T12:42:35;97871.84;;;13.72;100.00
28665;BME280;15850;47.524;7.814;2023-11-19T12:45:00;97874.22;;;13.74;100.00
28665;BME280;15850;47.524;7.814;2023-11-19T12:47:26;97820.34;;;13.27;100.00
28665;BME280;15850;47.524;7.814;2023-11-19T12:49:58;97878.66;;;13.78;100.00
28665;BME280;15850;47.524;7.814;2023-11-19T12:52:25;97643.06;;;12.30;100.00
28665;BME280;15850;47.524;7.814;2023-11-19T12:54:50;97870.00;;;13.76;100.00